METAR Data
IDs: Format: Raw Decoded Include TAF

Data at: 1716 UTC 23 Sep 2020

KCOS 231654Z 32008G17KT 10SM FEW100 BKN130 BKN250 24/03 A3026 RMK AO2 SLP164 T02390028

KCOS 231128Z 2312/2412 35007KT P6SM FEW200
  FM231800 01011KT P6SM FEW110
  FM240000 05008KT P6SM FEW110
  FM240300 34006KT P6SM SKC